Flight Track Log - Related Links

Times and Time Zones

All times are in EDT time to prevent confusion due to time zone crossing. See the UAL109 flight status page for this flight to view local times or setup timezone preferences in your user account.

Time Position Orientation Groundspeed Altitude Reporting Facility
EDT Latitude Longitude Course Direction KTS MPH feet Rate Location/Type
Fri 01:33:00 PM 56.2440 -5.9879 282° West  Level Estimated
Fri 01:34:00 PM 56.2643 -6.1907 280° West  Level Estimated
Fri 01:35:00 PM 56.2842 -6.3937 280° West  Level Estimated
Fri 01:36:00 PM 56.3039 -6.5969 280° West  Level Estimated
Fri 01:37:00 PM 56.3232 -6.8004 280° West  Level Estimated
Fri 01:38:00 PM 56.3422 -7.0040 280° West  Level Estimated
Fri 01:39:00 PM 56.3608 -7.2078 279° West  Level Estimated
Fri 01:40:00 PM 56.3792 -7.4118 279° West  Level Estimated
Fri 01:41:00 PM 56.3971 -7.6161 279° West  Level Estimated
Fri 01:42:00 PM 56.4148 -7.8205 279° West  Level Estimated
Fri 01:43:00 PM 56.4321 -8.0251 279° West  Level Estimated
Fri 01:44:00 PM 56.4490 -8.2298 279° West  Level Estimated
Fri 01:45:00 PM 56.4657 -8.4348 278° West  Level Estimated
Fri 01:46:00 PM 56.4820 -8.6399 278° West  Level Estimated
Fri 01:47:00 PM 56.4979 -8.8453 278° West  Level Estimated
Fri 01:48:00 PM 56.5135 -9.0508 278° West  Level Estimated
Fri 01:49:00 PM 56.5288 -9.2564 278° West  Level Estimated
Fri 01:50:00 PM 56.5437 -9.4622 278° West  Level Estimated
Fri 01:51:00 PM 56.5583 -9.6682 277° West  Level Estimated
Fri 01:52:00 PM 56.5726 -9.8743 277° West  Level Estimated
Fri 01:53:00 PM 56.5865 -10.0806 277° West  Level Estimated
Fri 01:54:00 PM 56.6001 -10.2871 277° West  Level Estimated
Fri 01:55:00 PM 56.6133 -10.4937 277° West  Level Estimated
Fri 01:56:00 PM 56.6262 -10.7004 277° West  Level Estimated
Fri 01:57:00 PM 56.6387 -10.9073 276° West  Level Estimated
Fri 01:58:00 PM 56.6509 -11.1143 276° West  Level Estimated
Fri 01:59:00 PM 56.6628 -11.3214 276° West  Level Estimated
Fri 02:00:00 PM 56.6743 -11.5287 276° West  Level Estimated
Fri 02:01:00 PM 56.6855 -11.7361 276° West  Level Estimated
Fri 02:02:00 PM 56.6963 -11.9436 276° West  Level Estimated
Fri 02:03:00 PM 56.7068 -12.1512 275° West  Level Estimated
Fri 02:04:00 PM 56.7169 -12.3589 275° West  Level Estimated
Fri 02:05:00 PM 56.7267 -12.5668 275° West  Level Estimated
Fri 02:06:00 PM 56.7361 -12.7747 275° West  Level Estimated
Fri 02:07:00 PM 56.7452 -12.9828 275° West  Level Estimated
Fri 02:08:00 PM 56.7540 -13.1910 274° West  Level Estimated
Fri 02:09:00 PM 56.7624 -13.3992 274° West  Level Estimated
Fri 02:10:00 PM 56.7704 -13.6076 274° West  Level Estimated
Fri 02:11:00 PM 56.7781 -13.8160 274° West  Level Estimated
Fri 02:12:00 PM 56.7855 -14.0245 274° West  Level Estimated
Fri 02:13:00 PM 56.7925 -14.2331 274° West  Level Estimated
Fri 02:14:00 PM 56.7992 -14.4418 273° West  Level Estimated
Fri 02:15:00 PM 56.8055 -14.6505 273° West  Level Estimated
Fri 02:16:00 PM 56.8114 -14.8594 273° West  Level Estimated
Fri 02:17:00 PM 56.8171 -15.0682 273° West  Level Estimated
Fri 02:18:00 PM 56.8223 -15.2772 273° West  Level Estimated
Fri 02:19:00 PM 56.8273 -15.4862 273° West  Level Estimated
Fri 02:20:00 PM 56.8318 -15.6952 272° West  Level Estimated
Fri 02:21:00 PM 56.8360 -15.9043 272° West  Level Estimated
Fri 02:22:00 PM 56.8399 -16.1135 272° West  Level Estimated
Fri 02:23:00 PM 56.8434 -16.3226 272° West  Level Estimated
Fri 02:24:00 PM 56.8466 -16.5319 272° West  Level Estimated
Fri 02:25:00 PM 56.8494 -16.7411 272° West  Level Estimated
Fri 02:26:00 PM 56.8519 -16.9504 271° West  Level Estimated
Fri 02:27:00 PM 56.8540 -17.1597 271° West  Level Estimated
Fri 02:28:00 PM 56.8558 -17.3690 271° West  Level Estimated
Fri 02:29:00 PM 56.8572 -17.5784 271° West  Level Estimated
Fri 02:30:00 PM 56.8583 -17.7877 271° West  Level Estimated
Fri 02:31:00 PM 56.8590 -17.9971 270° West  Level Estimated
Fri 02:32:00 PM 56.8594 -18.2065 270° West  Level Estimated
Fri 02:33:00 PM 56.8594 -18.4159 270° West  Level Estimated
Fri 02:34:00 PM 56.8591 -18.6252 270° West  Level Estimated
Fri 02:35:00 PM 56.8584 -18.8346 270° West  Level Estimated
Fri 02:36:00 PM 56.8573 -19.0440 270° West  Level Estimated
Fri 02:37:00 PM 56.8560 -19.2533 269° West  Level Estimated
Fri 02:38:00 PM 56.8542 -19.4627 269° West  Level Estimated
Fri 02:39:00 PM 56.8521 -19.6720 269° West  Level Estimated
Fri 02:40:00 PM 56.8497 -19.8813 269° West  Level Estimated
Fri 02:41:00 PM 56.8469 -20.0905 269° West  Level Estimated
Fri 02:42:00 PM 56.8438 -20.2998 269° West  Level Estimated
Fri 02:43:00 PM 56.8403 -20.5089 268° West  Level Estimated
Fri 02:44:00 PM 56.8365 -20.7181 268° West  Level Estimated
Fri 02:45:00 PM 56.8323 -20.9272 268° West  Level Estimated
Fri 02:46:00 PM 56.8278 -21.1362 268° West  Level Estimated
Fri 02:47:00 PM 56.8229 -21.3452 268° West  Level Estimated
Fri 02:48:00 PM 56.8177 -21.5542 267° West  Level Estimated
Fri 02:49:00 PM 56.8121 -21.7631 267° West  Level Estimated
Fri 02:50:00 PM 56.8062 -21.9719 267° West  Level Estimated
Fri 02:51:00 PM 56.7999 -22.1807 267° West  Level Estimated
Fri 02:52:00 PM 56.7933 -22.3893 267° West  Level Estimated
Fri 02:53:00 PM 56.7863 -22.5979 267° West  Level Estimated
Fri 02:54:00 PM 56.7790 -22.8065 266° West  Level Estimated
Fri 02:55:00 PM 56.7713 -23.0149 266° West  Level Estimated
Fri 02:56:00 PM 56.7633 -23.2233 266° West  Level Estimated
Fri 02:57:00 PM 56.7550 -23.4315 266° West  Level Estimated
Fri 02:58:00 PM 56.7463 -23.6397 266° West  Level Estimated
Fri 02:59:00 PM 56.7372 -23.8478 266° West  Level Estimated
Fri 03:00:00 PM 56.7278 -24.0558 265° West  Level Estimated
Fri 03:01:00 PM 56.7180 -24.2636 265° West  Level Estimated
Fri 03:02:00 PM 56.7080 -24.4714 265° West  Level Estimated
Fri 03:03:00 PM 56.6975 -24.6790 265° West  Level Estimated
Fri 03:04:00 PM 56.6867 -24.8865 265° West  Level Estimated
Fri 03:05:00 PM 56.6756 -25.0939 265° West  Level Estimated
Fri 03:06:00 PM 56.6641 -25.3012 264° West  Level Estimated
Fri 03:07:00 PM 56.6523 -25.5084 264° West  Level Estimated
Fri 03:08:00 PM 56.6402 -25.7154 264° West  Level Estimated
Fri 03:09:00 PM 56.6277 -25.9223 264° West  Level Estimated
Fri 03:10:00 PM 56.6148 -26.1290 264° West  Level Estimated
Fri 03:11:00 PM 56.6016 -26.3356 263° West  Level Estimated
Fri 03:12:00 PM 56.5881 -26.5421 263° West  Level Estimated
Fri 03:13:00 PM 56.5742 -26.7484 263° West  Level Estimated
Fri 03:14:00 PM 56.5600 -26.9545 263° West  Level Estimated
Fri 03:15:00 PM 56.5455 -27.1605 263° West  Level Estimated
Fri 03:16:00 PM 56.5306 -27.3664 263° West  Level Estimated
Fri 03:17:00 PM 56.5153 -27.5720 262° West  Level Estimated
Fri 03:18:00 PM 56.4998 -27.7775 262° West  Level Estimated
Fri 03:19:00 PM 56.4839 -27.9829 262° West  Level Estimated
Fri 03:20:00 PM 56.4676 -28.1880 262° West  Level Estimated
Fri 03:21:00 PM 56.4510 -28.3930 262° West  Level Estimated
Fri 03:22:00 PM 56.4341 -28.5978 262° West  Level Estimated
Fri 03:23:00 PM 56.4168 -28.8025 261° West  Level Estimated
Fri 03:24:00 PM 56.3992 -29.0069 261° West  Level Estimated
Fri 03:25:00 PM 56.3813 -29.2111 261° West  Level Estimated
Fri 03:26:00 PM 56.3630 -29.4152 261° West  Level Estimated
Fri 03:27:00 PM 56.3444 -29.6190 261° West  Level Estimated
Fri 03:28:00 PM 56.3255 -29.8227 261° West  Level Estimated
Fri 03:29:00 PM 56.3062 -30.0261 260° West  Level Estimated
Fri 03:30:00 PM 56.2866 -30.2294 260° West  Level Estimated
Fri 03:31:00 PM 56.2667 -30.4324 260° West  Level Estimated
Fri 03:32:00 PM 56.2464 -30.6352 260° West  Level Estimated
Fri 03:33:00 PM 56.2258 -30.8378 260° West  Level Estimated
Fri 03:34:00 PM 56.2048 -31.0402 260° West  Level Estimated
Fri 03:35:00 PM 56.1836 -31.2423 259° West  Level Estimated
Fri 03:36:00 PM 56.1620 -31.4443 259° West  Level Estimated
Fri 03:37:00 PM 56.1401 -31.6460 259° West  Level Estimated
Fri 03:38:00 PM 56.1178 -31.8475 259° West  Level Estimated
Fri 03:39:00 PM 56.0952 -32.0487 259° West  Level Estimated
Fri 03:40:00 PM 56.0723 -32.2497 259° West  Level Estimated
Fri 03:41:00 PM 56.0491 -32.4505 258° West  Level Estimated
Fri 03:42:00 PM 56.0256 -32.6510 258° West  Level Estimated
Fri 03:43:00 PM 56.0017 -32.8512 258° West  Level Estimated
Fri 03:44:00 PM 55.9775 -33.0513 258° West  Level Estimated
Fri 03:45:00 PM 55.9529 -33.2510 258° West  Level Estimated
Fri 03:46:00 PM 55.9281 -33.4505 258° West  Level Estimated
Fri 03:47:00 PM 55.9029 -33.6498 257° West  Level Estimated
Fri 03:48:00 PM 55.8774 -33.8488 257° West  Level Estimated
Fri 03:49:00 PM 55.8516 -34.0475 257° West  Level Estimated
Fri 03:50:00 PM 55.8255 -34.2460 257° West  Level Estimated
Fri 03:51:00 PM 55.7990 -34.4442 257° West  Level Estimated
Fri 03:52:00 PM 55.7723 -34.6421 257° West  Level Estimated
Fri 03:53:00 PM 55.7452 -34.8398 256° West  Level Estimated
Fri 03:54:00 PM 55.7178 -35.0372 256° West  Level Estimated
Fri 03:55:00 PM 55.6901 -35.2343 256° West  Level Estimated
Fri 03:56:00 PM 55.6620 -35.4311 256° West  Level Estimated
Fri 03:57:00 PM 55.6337 -35.6276 256° West  Level Estimated
Fri 03:58:00 PM 55.6050 -35.8239 256° West  Level Estimated
Fri 03:59:00 PM 55.5760 -36.0198 255° West  Level Estimated
Fri 04:00:00 PM 55.5467 -36.2155 255° West  Level Estimated
Fri 04:01:00 PM 55.5171 -36.4109 255° West  Level Estimated
Fri 04:02:00 PM 55.4872 -36.6060 255° West  Level Estimated
Fri 04:03:00 PM 55.4570 -36.8008 255° West  Level Estimated
Fri 04:04:00 PM 55.4265 -36.9953 255° West  Level Estimated
Fri 04:05:00 PM 55.3956 -37.1894 254° West  Level Estimated
Fri 04:06:00 PM 55.3645 -37.3833 254° West  Level Estimated
Fri 04:07:00 PM 55.3330 -37.5769 254° West  Level Estimated
Fri 04:08:00 PM 55.3013 -37.7702 254° West  Level Estimated
Fri 04:09:00 PM 55.2692 -37.9631 254° West  Level Estimated
Fri 04:10:00 PM 55.2368 -38.1558 254° West  Level Estimated
Fri 04:11:00 PM 55.2042 -38.3481 253° West  Level Estimated
Fri 04:12:00 PM 55.1712 -38.5401 253° West  Level Estimated
Fri 04:13:00 PM 55.1379 -38.7318 253° West  Level Estimated
Fri 04:14:00 PM 55.1044 -38.9232 253° West  Level Estimated
Fri 04:15:00 PM 55.0705 -39.1142 253° West  Level Estimated
Fri 04:16:00 PM 55.0363 -39.3049 253° West  Level Estimated
Fri 04:17:00 PM 55.0019 -39.4953 253° West  Level Estimated
Fri 04:18:00 PM 54.9671 -39.6854 252° West  Level Estimated
Fri 04:19:00 PM 54.9320 -39.8751 252° West  Level Estimated
Fri 04:20:00 PM 54.8967 -40.0645 252° West  Level Estimated
Fri 04:21:00 PM 54.8610 -40.2536 252° West  Level Estimated
Fri 04:22:00 PM 54.8251 -40.4424 252° West  Level Estimated
Fri 04:23:00 PM 54.7888 -40.6308 252° West  Level Estimated
Fri 04:24:00 PM 54.7523 -40.8188 251° West  Level Estimated
Fri 04:25:00 PM 54.7155 -41.0065 251° West  Level Estimated
Fri 04:26:00 PM 54.6784 -41.1939 251° West  Level Estimated
Fri 04:27:00 PM 54.6410 -41.3810 251° West  Level Estimated
Fri 04:28:00 PM 54.6033 -41.5676 251° West  Level Estimated
Fri 04:29:00 PM 54.5653 -41.7540 251° West  Level Estimated
Fri 04:30:00 PM 54.5271 -41.9400 251° West  Level Estimated
Fri 04:31:00 PM 54.4885 -42.1256 250° West  Level Estimated
Fri 04:32:00 PM 54.4497 -42.3109 250° West  Level Estimated
Fri 04:33:00 PM 54.4106 -42.4959 250° West  Level Estimated
Fri 04:34:00 PM 54.3712 -42.6805 250° West  Level Estimated
Fri 04:35:00 PM 54.3316 -42.8647 250° West  Level Estimated
Fri 04:36:00 PM 54.2916 -43.0486 250° West  Level Estimated
Fri 04:37:00 PM 54.2514 -43.2321 249° West  Level Estimated
Fri 04:38:00 PM 54.2109 -43.4153 249° West  Level Estimated
Fri 04:39:00 PM 54.1701 -43.5981 249° West  Level Estimated
Fri 04:40:00 PM 54.1290 -43.7805 249° West  Level Estimated
Fri 04:41:00 PM 54.0877 -43.9626 249° West  Level Estimated
Fri 04:42:00 PM 54.0461 -44.1443 249° West  Level Estimated
Fri 04:43:00 PM 54.0042 -44.3256 249° West  Level Estimated
Fri 04:44:00 PM 53.9620 -44.5066 248° West  Level Estimated
Fri 04:45:00 PM 53.9196 -44.6872 248° West  Level Estimated
Fri 04:46:00 PM 53.8769 -44.8675 248° West  Level Estimated
Fri 04:47:00 PM 53.8339 -45.0474 248° West  Level Estimated
Fri 04:48:00 PM 53.7907 -45.2269 248° West  Level Estimated
Fri 04:49:00 PM 53.7472 -45.4060 248° West  Level Estimated
Fri 04:50:00 PM 53.7034 -45.5848 248° West  Level Estimated
Fri 04:51:00 PM 53.6594 -45.7632 247° West  Level Estimated
Fri 04:52:00 PM 53.6151 -45.9412 247° West  Level Estimated
Fri 04:53:00 PM 53.5705 -46.1189 247° West  Level Estimated
Fri 04:54:00 PM 53.5257 -46.2961 247° West  Level Estimated
Fri 04:55:00 PM 53.4806 -46.4730 247° West  Level Estimated
Fri 04:56:00 PM 53.4353 -46.6496 247° West  Level Estimated
Fri 04:57:00 PM 53.3896 -46.8257 247° West  Level Estimated
Fri 04:58:00 PM 53.3438 -47.0015 246° West  Level Estimated
Fri 04:59:00 PM 53.2977 -47.1768 246° West  Level Estimated
Fri 05:00:00 PM 53.2513 -47.3519 246° West  Level Estimated
Fri 05:01:00 PM 53.2046 -47.5265 246° West  Level Estimated
Fri 05:02:00 PM 53.1577 -47.7007 246° West  Level Estimated
Fri 05:03:00 PM 53.1106 -47.8746 246° West  Level Estimated
Fri 05:04:00 PM 53.0632 -48.0481 246° West  Level Estimated
Fri 05:05:00 PM 53.0155 -48.2212 245° Southwest  Level Estimated
Fri 05:06:00 PM 52.9677 -48.3939 245° Southwest  Level Estimated
Fri 05:07:00 PM 52.9195 -48.5662 245° Southwest  Level Estimated
Fri 05:08:00 PM 52.8711 -48.7382 245° Southwest  Level Estimated
Fri 05:09:00 PM 52.8224 -48.9098 245° Southwest  Level Estimated
Fri 05:10:00 PM 52.7736 -49.0809 245° Southwest  Level Estimated
Fri 05:11:00 PM 52.7244 -49.2517 245° Southwest  Level Estimated
Fri 05:12:00 PM 52.6750 -49.4221 245° Southwest  Level Estimated
Fri 05:13:00 PM 52.6254 -49.5922 244° Southwest  Level Estimated
Fri 05:14:00 PM 52.5755 -49.7618 244° Southwest  Level Estimated
Fri 05:15:00 PM 52.5254 -49.9311 244° Southwest  Level Estimated
Fri 05:16:00 PM 52.4751 -50.0999 244° Southwest  Level Estimated
Fri 05:17:00 PM 52.4245 -50.2684 244° Southwest  Level Estimated
Fri 05:18:00 PM 52.3737 -50.4365 244° Southwest  Level Estimated
Fri 05:19:00 PM 52.3226 -50.6042 244° Southwest  Level Estimated
Fri 05:20:00 PM 52.2713 -50.7715 243° Southwest  Level Estimated
Fri 05:21:00 PM 52.2197 -50.9384 243° Southwest  Level Estimated
Fri 05:22:00 PM 52.1680 -51.1050 243° Southwest  Level Estimated
Fri 05:23:00 PM 52.1160 -51.2711 243° Southwest  Level Estimated
Fri 05:24:00 PM 52.0637 -51.4369 243° Southwest  Level Estimated
Fri 05:25:00 PM 52.0112 -51.6023 243° Southwest  Level Estimated
Fri 05:26:00 PM 51.9585 -51.7673 243° Southwest  Level Estimated
Fri 05:27:00 PM 51.9056 -51.9319 243° Southwest  Level Estimated
Fri 05:28:00 PM 51.8524 -52.0961 242° Southwest  Level Estimated
Fri 05:29:00 PM 51.7990 -52.2599 242° Southwest  Level Estimated
Fri 05:30:00 PM 51.7454 -52.4233 242° Southwest  Level Estimated
Fri 05:31:00 PM 51.6915 -52.5864 242° Southwest  Level Estimated
Fri 05:32:00 PM 51.6375 -52.7491 242° Southwest  Level Estimated
Fri 05:33:00 PM 51.5832 -52.9113 242° Southwest  Level Estimated
Fri 05:34:00 PM 51.5286 -53.0732 242° Southwest  Level Estimated
Fri 05:35:00 PM 51.4739 -53.2347 241° Southwest  Level Estimated
Fri 05:36:00 PM 51.4189 -53.3958 241° Southwest  Level Estimated
Fri 05:37:00 PM 51.3638 -53.5565 241° Southwest  Level Estimated
Fri 05:38:00 PM 51.3084 -53.7169 241° Southwest  Level Estimated
Fri 05:39:00 PM 51.2527 -53.8768 241° Southwest  Level Estimated
Fri 05:40:00 PM 51.1969 -54.0364 241° Southwest  Level Estimated
Fri 05:41:00 PM 51.1408 -54.1955 241° Southwest  Level Estimated
Fri 05:42:00 PM 51.0846 -54.3543 241° Southwest  Level Estimated
Fri 05:43:00 PM 51.0281 -54.5127 240° Southwest  Level Estimated
Fri 05:44:00 PM 50.9714 -54.6707 240° Southwest  Level Estimated
Fri 05:45:00 PM 50.9145 -54.8283 240° Southwest  Level Estimated
Fri 05:46:00 PM 50.8573 -54.9856 240° Southwest  Level Estimated
Fri 05:47:00 PM 50.8000 -55.1424 240° Southwest  Level Estimated
Fri 05:48:00 PM 50.7425 -55.2989 240° Southwest  Level Estimated
Fri 05:49:00 PM 50.6847 -55.4550 240° Southwest  Level Estimated
Fri 05:50:00 PM 50.6268 -55.6107 240° Southwest  Level Estimated
Fri 05:51:00 PM 50.5686 -55.7660 240° Southwest  Level Estimated
Fri 05:52:00 PM 50.5102 -55.9209 239° Southwest  Level Estimated
Fri 05:53:00 PM 50.4516 -56.0755 239° Southwest  Level Estimated
Fri 05:54:00 PM 50.3929 -56.2296 239° Southwest  Level Estimated
Fri 05:55:00 PM 50.3339 -56.3834 239° Southwest  Level Estimated
Fri 05:56:00 PM 50.2747 -56.5368 239° Southwest  Level Estimated
Fri 05:57:00 PM 50.2153 -56.6898 239° Southwest  Level Estimated
Fri 05:58:00 PM 50.1557 -56.8425 239° Southwest  Level Estimated
Fri 05:59:00 PM 50.0959 -56.9947 239° Southwest  Level Estimated
Fri 06:00:00 PM 50.0359 -57.1466 238° Southwest  Level Estimated
Fri 06:01:00 PM 49.9757 -57.2981 238° Southwest  Level Estimated
Fri 06:02:00 PM 49.9154 -57.4492 238° Southwest  Level Estimated
Fri 06:03:00 PM 49.8548 -57.6000 238° Southwest  Level Estimated
Fri 06:04:00 PM 49.7940 -57.7503 238° Southwest  Level Estimated
Fri 06:05:00 PM 49.7330 -57.9003 238° Southwest  Level Estimated
Fri 06:06:00 PM 49.6719 -58.0499 238° Southwest  Level Estimated
Fri 06:07:00 PM 49.6105 -58.1991 238° Southwest  Level Estimated
Fri 06:08:00 PM 49.5490 -58.3480 238° Southwest  Level Estimated
Fri 06:09:00 PM 49.4872 -58.4965 237° Southwest  Level Estimated
Fri 06:10:00 PM 49.4253 -58.6446 237° Southwest  Level Estimated
Fri 06:11:00 PM 49.3632 -58.7923 237° Southwest  Level Estimated
Fri 06:12:00 PM 49.3009 -58.9397 237° Southwest  Level Estimated
Fri 06:13:00 PM 49.2384 -59.0866 237° Southwest  Level Estimated
Fri 06:14:00 PM 49.1757 -59.2332 237° Southwest  Level Estimated
Fri 06:15:00 PM 49.1129 -59.3795 237° Southwest  Level Estimated
Fri 06:16:00 PM 49.0498 -59.5254 237° Southwest  Level Estimated
Fri 06:17:00 PM 48.9866 -59.6709 237° Southwest  Level Estimated
Fri 06:18:00 PM 48.9232 -59.8160 236° Southwest  Level Estimated
Fri 06:19:00 PM 48.8596 -59.9608 236° Southwest  Level Estimated
Fri 06:20:00 PM 48.7958 -60.1051 236° Southwest  Level Estimated
Fri 06:21:00 PM 48.7319 -60.2492 236° Southwest  Level Estimated
Fri 06:22:00 PM 48.6677 -60.3928 236° Southwest  Level Estimated
Fri 06:23:00 PM 48.6034 -60.5361 236° Southwest  Level Estimated
Fri 06:24:00 PM 48.5389 -60.6791 236° Southwest  Level Estimated
Fri 06:25:00 PM 48.4743 -60.8216 236° Southwest  Level Estimated
Fri 06:26:00 PM 48.4094 -60.9638 236° Southwest  Level Estimated
Fri 06:27:00 PM 48.3444 -61.1057 235° Southwest  Level Estimated
Fri 06:28:00 PM 48.2792 -61.2471 235° Southwest  Level Estimated
Fri 06:29:00 PM 48.2139 -61.3883 235° Southwest  Level Estimated
Fri 06:30:00 PM 48.1483 -61.5290 235° Southwest  Level Estimated
Fri 06:31:00 PM 48.0826 -61.6694 235° Southwest  Level Estimated
Fri 06:32:00 PM 48.0168 -61.8095 235° Southwest  Level Estimated
Fri 06:33:00 PM 47.9507 -61.9491 235° Southwest  Level Estimated
Fri 06:34:00 PM 47.8845 -62.0885 235° Southwest  Level Estimated
Fri 06:35:00 PM 47.8181 -62.2274 235° Southwest  Level Estimated
Fri 06:36:00 PM 47.7516 -62.3660 235° Southwest  Level Estimated
Fri 06:37:00 PM 47.6849 -62.5043 234° Southwest  Level Estimated
Fri 06:38:00 PM 47.6180 -62.6422 234° Southwest  Level Estimated
Fri 06:39:00 PM 47.5509 -62.7798 234° Southwest  Level Estimated
Fri 06:40:00 PM 47.4837 -62.9170 234° Southwest  Level Estimated
Fri 06:41:00 PM 47.4164 -63.0538 234° Southwest  Level Estimated
Fri 06:42:00 PM 47.3488 -63.1903 234° Southwest  Level Estimated
Fri 06:43:00 PM 47.2811 -63.3265 234° Southwest  Level Estimated
Fri 06:44:00 PM 47.2132 -63.4622 234° Southwest  Level Estimated
Fri 06:45:00 PM 47.1452 -63.5977 234° Southwest  Level Estimated
Fri 06:46:00 PM 47.0770 -63.7328 233° Southwest  Level Estimated
Fri 06:47:00 PM 47.0087 -63.8676 233° Southwest  Level Estimated
Fri 06:48:00 PM 46.9402 -64.0020 233° Southwest  Level Estimated
Fri 06:49:00 PM 46.8716 -64.1361 233° Southwest  Level Estimated
Fri 06:50:00 PM 46.8028 -64.2698 233° Southwest  Level Estimated
Fri 06:51:00 PM 46.7338 -64.4032 233° Southwest  Level Estimated
Fri 06:52:00 PM 46.6647 -64.5362 233° Southwest  Level Estimated
Fri 06:53:00 PM 46.5954 -64.6689 233° Southwest  Level Estimated
Fri 06:54:00 PM 46.5260 -64.8013 233° Southwest  Level Estimated
Fri 06:55:00 PM 46.4564 -64.9333 233° Southwest  Level Estimated
Fri 06:56:00 PM 46.3867 -65.0650 233° Southwest  Level Estimated
Fri 06:57:00 PM 46.3168 -65.1964 232° Southwest  Level Estimated
Fri 06:58:00 PM 46.2468 -65.3274 232° Southwest  Level Estimated
Fri 06:59:00 PM 46.1766 -65.4581 232° Southwest  Level Estimated
Fri 07:00:00 PM 46.1063 -65.5884 232° Southwest  Level Estimated
Fri 07:01:00 PM 46.0358 -65.7185 232° Southwest  Level Estimated
Fri 07:02:00 PM 45.9652 -65.8481 232° Southwest  Level Estimated
Fri 07:03:00 PM 45.8944 -65.9775 232° Southwest  Level Estimated
Fri 07:04:00 PM 45.8235 -66.1065 232° Southwest  Level Estimated
Fri 07:05:00 PM 45.7524 -66.2352 232° Southwest  Level Estimated
Fri 07:06:00 PM 45.6812 -66.3636 232° Southwest  Level Estimated
Fri 07:07:00 PM 45.6099 -66.4916 231° Southwest  Level Estimated
Fri 07:08:00 PM 45.5384 -66.6194 231° Southwest  Level Estimated
Fri 07:09:00 PM 45.4668 -66.7467 231° Southwest  Level Estimated
Fri 07:10:00 PM 45.3950 -66.8738 231° Southwest  Level Estimated
Fri 07:11:00 PM 45.3231 -67.0006 231° Southwest  Level Estimated
Fri 07:12:00 PM 45.2510 -67.1270 231° Southwest  Level Estimated
Fri 07:13:00 PM 45.1788 -67.2531 231° Southwest  Level Estimated
Fri 07:14:00 PM 45.1065 -67.3789 231° Southwest  Level Estimated
Fri 07:15:00 PM 45.0340 -67.5043 231° Southwest  Level Estimated
Fri 07:16:00 PM 44.9614 -67.6295 231° Southwest  Level Estimated
Fri 07:17:00 PM 44.8887 -67.7543 231° Southwest  Level Estimated
Fri 07:18:00 PM 44.8158 -67.8789 231° Southwest  Level Estimated
Fri 07:19:00 PM 44.7428 -68.0031 230° Southwest  Level Estimated
Fri 07:20:00 PM 44.6697 -68.1269 230° Southwest  Level Estimated
Fri 07:21:00 PM 44.5964 -68.2505 230° Southwest  Level Estimated
Fri 07:22:00 PM 44.5230 -68.3738 230° Southwest  Level Estimated
Fri 07:23:00 PM 44.4494 -68.4967 230° Southwest  Level Estimated
Fri 07:24:00 PM 44.3758 -68.6194 230° Southwest  Level Estimated
Fri 07:25:00 PM 44.3019 -68.7417 230° Southwest  Level Estimated
Fri 07:26:00 PM 44.2280 -68.8637 230° Southwest  Level Estimated
Fri 07:27:00 PM 44.1539 -68.9855 230° Southwest  Level Estimated
Fri 07:28:00 PM 44.0797 -69.1069 230° Southwest  Level Estimated
Fri 07:29:00 PM 44.0054 -69.2280 230° Southwest  Level Estimated
Fri 07:30:00 PM 43.9310 -69.3488 229° Southwest  Level Estimated
Fri 07:31:00 PM 43.8564 -69.4693 229° Southwest  Level Estimated
Fri 07:32:00 PM 43.7817 -69.5895 229° Southwest  Level Estimated
Fri 07:33:00 PM 43.7069 -69.7094 229° Southwest  Level Estimated
Fri 07:34:00 PM 43.6319 -69.8290 229° Southwest  Level Estimated
Fri 07:35:00 PM 43.5568 -69.9483 229° Southwest  Level Estimated
Fri 07:36:00 PM 43.4816 -70.0673 229° Southwest  Level Estimated
Fri 07:37:00 PM 43.4063 -70.1861 229° Southwest  Level Estimated
Fri 07:38:00 PM 43.3308 -70.3045 229° Southwest  Level Estimated
Fri 07:39:00 PM 43.2553 -70.4226 229° Southwest  Level Estimated
Fri 07:40:00 PM 43.1796 -70.5404 229° Southwest  Level Estimated
Fri 07:41:00 PM 43.1038 -70.6580 229° Southwest  Level Estimated
Fri 07:42:00 PM 43.0279 -70.7752 228° Southwest  Level Estimated
Fri 07:43:00 PM 42.9518 -70.8922 228° Southwest  Level Estimated
Fri 07:44:00 PM 42.8756 -71.0088 228° Southwest  Level Estimated
Fri 07:45:00 PM 42.7993 -71.1252 228° Southwest  Level Estimated
Fri 07:46:00 PM 42.7229 -71.2413 228° Southwest  Level Estimated
Fri 07:47:00 PM 42.6464 -71.3571 228° Southwest  Level Estimated
Fri 07:48:00 PM 42.5698 -71.4726 228° Southwest  Level Estimated
Fri 07:49:00 PM 42.4930 -71.5879 228° Southwest  Level Estimated
Fri 07:50:00 PM 42.4161 -71.7028 228° Southwest  Level Estimated
Fri 07:51:00 PM 42.3392 -71.8175 228° Southwest  Level Estimated
Fri 07:52:00 PM 42.2621 -71.9319 228° Southwest  Level Estimated
Fri 07:53:00 PM 42.1848 -72.0460 228° Southwest  Level Estimated
Fri 07:54:00 PM 42.1075 -72.1599 228° Southwest  Level Estimated
Fri 07:55:00 PM 42.0301 -72.2734 227° Southwest  Level Estimated
Fri 07:56:00 PM 41.9525 -72.3867 227° Southwest  Level Estimated
Fri 07:57:00 PM 41.8749 -72.4997 227° Southwest  Level Estimated
Fri 07:58:00 PM 41.7971 -72.6125 227° Southwest  Level Estimated
Fri 07:59:00 PM 41.7192 -72.7249 227° Southwest  Level Estimated
Fri 08:00:00 PM 41.6412 -72.8371 227° Southwest  Level Estimated
Fri 08:01:00 PM 41.5631 -72.9490 227° Southwest  Level Estimated
Fri 08:02:00 PM 41.4849 -73.0607 227° Southwest  Level Estimated
Fri 08:03:00 PM 41.4066 -73.1720 227° Southwest  Level Estimated
Fri 08:04:00 PM 41.3282 -73.2831 227° Southwest  Level Estimated
Fri 08:05:00 PM 41.2497 -73.3940 227° Southwest  Level Estimated
Fri 08:06:00 PM 41.1710 -73.5046 227° Southwest  Level Estimated
Fri 08:07:00 PM 41.0923 -73.6149 227° Southwest  Level Estimated
Fri 08:08:00 PM 41.0134 -73.7249 227° Southwest  Level Estimated
Fri 08:09:00 PM 40.9345 -73.8347 226° Southwest  Level Estimated
Fri 08:10:00 PM 40.8554 -73.9442 226° Southwest  Level Estimated
Fri 08:11:00 PM 40.7763 -74.0535 226° Southwest  Level Estimated
Fri 08:12:00 PM 40.6970 -74.1625 226° Southwest  Level Estimated
Fri 08:13:00 PM 40.6925 -74.1687 226° Southwest  Level Estimated
Fri 08:14:00 PM 40.6925 -74.1687 90° East  Level Estimated
Fri 08:15:00 PM 40.6925 -74.1687 90° East  Level Estimated
Fri 08:16:00 PM 40.6925 -74.1687 90° East  Level Estimated
Fri 08:17:00 PM 40.6925 -74.1687 90° East  Level Estimated
Fri 08:18:00 PM 40.6925 -74.1687 90° East  Level Estimated
Fri 08:19:00 PM 40.6925 -74.1687 90° East  Level Estimated
Fri 08:20:00 PM 40.6925 -74.1687 90° East  Level Estimated
Fri 08:21:00 PM 40.6925 -74.1687 90° East  Level Estimated
Fri 08:22:00 PM 40.6925 -74.1687 90° East  Level Estimated
Fri 08:23:00 PM 40.6925 -74.1687 90° East  Level Estimated
Fri 08:24:00 PM 40.6925 -74.1687 90° East  Level Estimated
Fri 08:25:00 PM 40.6925 -74.1687 90° East  Level Estimated
Fri 08:26:00 PM 40.6925 -74.1687 90° East  Level Estimated
Fri 08:27:00 PM 40.6925 -74.1687 90° East  Level Estimated
Fri 08:28:00 PM 40.6925 -74.1687 90° East  Level Estimated

Login

Don't have an account? Register now (free) for customized features, flight alerts, and more!